createdAt,value
2023-05-01T00:02:23.498Z,99.90
2023-05-01T00:04:50.597Z,99.90
2023-05-01T00:07:17.598Z,99.90
2023-05-01T00:09:44.619Z,99.90
2023-05-01T00:12:11.914Z,99.90
2023-05-01T00:14:38.840Z,99.90
2023-05-01T00:17:06.273Z,99.90
2023-05-01T00:19:33.200Z,99.90
2023-05-01T00:22:00.373Z,99.90
2023-05-01T00:24:27.674Z,99.90
2023-05-01T00:26:54.710Z,99.90
2023-05-01T00:29:21.986Z,99.90
2023-05-01T00:31:49.059Z,99.90
2023-05-01T00:34:16.248Z,99.90
2023-05-01T00:36:43.387Z,99.90
2023-05-01T00:39:10.386Z,99.90
2023-05-01T00:41:37.703Z,99.90
2023-05-01T00:44:04.809Z,99.90
2023-05-01T00:46:34.497Z,99.90
2023-05-01T00:49:01.751Z,99.90
2023-05-01T00:51:29.904Z,99.90
2023-05-01T00:53:58.439Z,99.90
2023-05-01T00:56:26.445Z,99.90
2023-05-01T00:58:54.417Z,99.90
2023-05-01T01:01:22.005Z,99.90
2023-05-01T01:03:51.429Z,99.90
2023-05-01T01:06:58.925Z,99.90
2023-05-01T01:09:25.847Z,99.90
2023-05-01T01:12:45.507Z,99.90
2023-05-01T01:15:16.197Z,99.90
2023-05-01T01:18:01.777Z,99.90
2023-05-01T01:20:36.000Z,99.90
2023-05-01T01:23:30.647Z,99.90
2023-05-01T01:26:25.320Z,99.90
2023-05-01T01:29:29.291Z,99.90
2023-05-01T01:32:33.428Z,99.90
2023-05-01T01:35:12.793Z,99.90
2023-05-01T01:37:50.084Z,99.90
2023-05-01T01:40:22.046Z,99.90
2023-05-01T01:43:03.442Z,99.90
2023-05-01T01:45:40.175Z,99.90
2023-05-01T01:48:17.800Z,99.90
2023-05-01T01:50:46.955Z,99.90
2023-05-01T01:53:18.371Z,99.90
2023-05-01T01:55:46.884Z,99.90
2023-05-01T01:58:17.219Z,99.90
2023-05-01T02:00:46.120Z,99.90
2023-05-01T02:03:15.169Z,99.90
2023-05-01T02:05:43.728Z,99.90
2023-05-01T02:08:11.717Z,99.90
2023-05-01T02:10:40.330Z,99.90
2023-05-01T02:13:07.645Z,99.90
2023-05-01T02:15:35.866Z,99.90
2023-05-01T02:18:06.658Z,99.90
2023-05-01T02:20:33.673Z,99.90
2023-05-01T02:23:00.907Z,99.90
2023-05-01T02:25:31.864Z,99.90
2023-05-01T02:28:06.544Z,99.90
2023-05-01T02:30:33.614Z,99.90
2023-05-01T02:33:00.683Z,99.90
2023-05-01T02:35:27.678Z,99.90
2023-05-01T02:37:54.768Z,99.90
2023-05-01T02:40:22.126Z,99.90
2023-05-01T02:42:52.012Z,99.90
2023-05-01T02:45:23.912Z,99.90
2023-05-01T02:47:54.743Z,99.90
2023-05-01T02:50:22.349Z,99.90
2023-05-01T02:52:50.028Z,99.90
2023-05-01T02:55:17.586Z,99.90
2023-05-01T02:57:44.579Z,99.90
2023-05-01T03:00:14.194Z,99.90
2023-05-01T03:02:41.493Z,99.90
2023-05-01T03:05:09.002Z,99.90
2023-05-01T03:07:36.048Z,99.90
2023-05-01T03:10:04.415Z,99.90
2023-05-01T03:12:31.668Z,99.90
2023-05-01T03:14:58.704Z,99.90
2023-05-01T03:17:25.891Z,99.90
2023-05-01T03:19:53.029Z,99.90
2023-05-01T03:22:20.314Z,99.90
2023-05-01T03:24:47.729Z,99.90
2023-05-01T03:27:18.683Z,99.90
2023-05-01T03:29:45.666Z,99.90
2023-05-01T03:32:12.656Z,99.90
2023-05-01T03:34:39.601Z,99.90
2023-05-01T03:37:06.514Z,99.90
2023-05-01T03:39:33.472Z,99.90
2023-05-01T03:42:00.398Z,99.90
2023-05-01T03:44:27.648Z,99.90
2023-05-01T03:46:54.774Z,99.90
2023-05-01T03:49:21.712Z,99.90
2023-05-01T03:51:49.033Z,99.90
2023-05-01T03:54:16.081Z,99.90
2023-05-01T03:56:43.545Z,99.90
2023-05-01T03:59:10.623Z,99.90
2023-05-01T04:01:37.854Z,99.90
2023-05-01T04:04:05.054Z,99.90
2023-05-01T04:06:32.663Z,99.90
2023-05-01T04:08:59.735Z,99.90
2023-05-01T04:11:27.391Z,99.90
2023-05-01T04:13:54.419Z,99.90
2023-05-01T04:16:21.581Z,99.90
2023-05-01T04:18:48.735Z,99.90
2023-05-01T04:21:17.791Z,99.90
2023-05-01T04:23:44.981Z,99.90
2023-05-01T04:26:12.058Z,99.90
2023-05-01T04:28:39.128Z,99.80
2023-05-01T04:31:06.373Z,98.30
2023-05-01T04:33:33.422Z,99.80
2023-05-01T04:36:01.162Z,98.40
2023-05-01T04:38:29.465Z,99.10
2023-05-01T04:40:56.573Z,97.50
2023-05-01T04:43:23.782Z,96.10
2023-05-01T04:45:50.953Z,94.30
2023-05-01T04:48:17.953Z,93.10
2023-05-01T04:50:45.037Z,91.80
2023-05-01T04:53:12.060Z,91.60
2023-05-01T04:55:39.079Z,89.80
2023-05-01T04:58:06.150Z,90.00
2023-05-01T05:00:33.130Z,87.80
2023-05-01T05:03:00.201Z,90.10
2023-05-01T05:05:27.596Z,88.90
2023-05-01T05:07:54.583Z,83.20
2023-05-01T05:10:21.480Z,83.40
2023-05-01T05:12:48.443Z,80.00
2023-05-01T05:15:16.568Z,79.40
2023-05-01T05:17:43.542Z,79.00
2023-05-01T05:20:10.827Z,78.60
2023-05-01T05:22:38.006Z,76.50
2023-05-01T05:25:07.068Z,75.80
2023-05-01T05:27:38.083Z,72.10
2023-05-01T05:30:06.100Z,70.80
2023-05-01T05:32:33.813Z,74.20
2023-05-01T05:35:01.121Z,68.30
2023-05-01T05:37:28.165Z,65.80
2023-05-01T05:39:55.538Z,67.30
2023-05-01T05:42:25.720Z,67.80
2023-05-01T05:44:53.154Z,66.50
2023-05-01T05:47:20.351Z,67.20
2023-05-01T05:49:47.331Z,64.40
2023-05-01T05:52:14.799Z,63.00
2023-05-01T05:54:41.807Z,59.10
2023-05-01T05:57:09.070Z,62.00
2023-05-01T05:59:36.611Z,63.00
2023-05-01T06:02:03.979Z,60.80
2023-05-01T06:04:30.914Z,61.60
2023-05-01T06:06:58.297Z,59.20
2023-05-01T06:09:25.421Z,62.90
2023-05-01T06:11:52.543Z,59.90
2023-05-01T06:14:19.842Z,60.40
2023-05-01T06:16:46.961Z,58.30
2023-05-01T06:19:14.193Z,60.20
2023-05-01T06:21:41.393Z,59.90
2023-05-01T06:24:08.584Z,58.60
2023-05-01T06:26:35.491Z,57.30
2023-05-01T06:29:02.526Z,58.80
2023-05-01T06:31:29.522Z,58.70
2023-05-01T06:33:56.456Z,62.00
2023-05-01T06:36:23.449Z,60.60
2023-05-01T06:38:50.410Z,59.70
2023-05-01T06:41:17.502Z,59.80
2023-05-01T06:43:44.456Z,58.00
2023-05-01T06:46:12.662Z,58.20
2023-05-01T06:48:39.794Z,57.80
2023-05-01T06:51:06.725Z,57.20
2023-05-01T06:53:33.677Z,58.60
2023-05-01T06:56:00.616Z,57.40
2023-05-01T06:58:27.584Z,55.60
2023-05-01T07:00:54.725Z,54.90
2023-05-01T07:05:57.337Z,53.10
2023-05-01T07:08:24.427Z,54.80
2023-05-01T07:10:51.872Z,54.90
2023-05-01T07:13:19.563Z,53.80
2023-05-01T07:15:46.853Z,50.20
2023-05-01T07:18:13.918Z,54.90
2023-05-01T07:20:42.569Z,54.10
2023-05-01T07:23:09.973Z,49.60
2023-05-01T07:25:42.950Z,47.60
2023-05-01T07:28:09.948Z,50.70
2023-05-01T07:30:37.616Z,52.70
2023-05-01T07:33:06.038Z,49.80
2023-05-01T07:35:33.153Z,48.20
2023-05-01T07:38:00.060Z,51.70
2023-05-01T07:40:27.040Z,50.10
2023-05-01T07:42:54.663Z,48.80
2023-05-01T07:45:21.773Z,50.90
2023-05-01T07:47:49.724Z,52.40
2023-05-01T07:50:17.300Z,51.70
2023-05-01T07:52:44.679Z,52.90
2023-05-01T07:55:11.735Z,52.70
2023-05-01T07:57:39.396Z,53.10
2023-05-01T08:00:06.990Z,46.00
2023-05-01T08:02:34.140Z,48.50
2023-05-01T08:05:02.942Z,48.20
2023-05-01T08:07:30.065Z,50.10
2023-05-01T08:09:59.282Z,48.10
2023-05-01T08:12:28.455Z,51.50
2023-05-01T08:14:55.692Z,49.80
2023-05-01T08:17:22.674Z,53.40
2023-05-01T08:19:50.412Z,48.90
2023-05-01T08:22:17.339Z,51.30
2023-05-01T08:24:44.244Z,52.70
2023-05-01T08:27:11.239Z,52.40
2023-05-01T08:29:38.276Z,54.10
2023-05-01T08:32:05.662Z,53.00
2023-05-01T08:34:32.650Z,48.00
2023-05-01T08:37:00.196Z,51.10
2023-05-01T08:39:27.110Z,49.20
2023-05-01T08:41:54.182Z,53.10
2023-05-01T08:44:21.567Z,49.90
2023-05-01T08:47:01.960Z,49.60
2023-05-01T08:49:31.971Z,53.00
2023-05-01T08:52:01.958Z,50.90
2023-05-01T08:54:31.187Z,51.20
2023-05-01T08:57:04.793Z,52.70
2023-05-01T08:59:35.956Z,51.00
2023-05-01T09:02:05.961Z,53.40
2023-05-01T09:04:35.603Z,52.60
2023-05-01T09:07:02.749Z,52.50
2023-05-01T09:09:30.689Z,54.70
2023-05-01T09:12:25.854Z,54.70
2023-05-01T09:14:54.589Z,54.70
2023-05-01T09:17:22.999Z,55.10
2023-05-01T09:19:53.488Z,53.20
2023-05-01T09:22:21.402Z,49.60
2023-05-01T09:24:48.652Z,51.30
2023-05-01T09:27:16.085Z,49.10
2023-05-01T09:29:45.625Z,55.40
2023-05-01T09:32:26.053Z,56.00
2023-05-01T09:34:53.773Z,50.00
2023-05-01T09:37:29.036Z,50.60
2023-05-01T09:40:06.333Z,52.00
2023-05-01T09:42:35.997Z,52.40
2023-05-01T09:45:05.234Z,51.70
2023-05-01T09:47:34.183Z,54.20
2023-05-01T09:50:05.446Z,53.30
2023-05-01T09:52:33.999Z,51.70
2023-05-01T09:55:17.866Z,53.10
2023-05-01T09:57:46.388Z,52.20
2023-05-01T10:00:15.853Z,50.80
2023-05-01T10:02:46.242Z,51.20
2023-05-01T10:05:14.077Z,52.80
2023-05-01T10:07:56.653Z,51.10
2023-05-01T10:10:23.811Z,52.00
2023-05-01T10:12:51.037Z,51.80
2023-05-01T10:15:25.527Z,51.00
2023-05-01T10:17:54.665Z,50.00
2023-05-01T10:20:22.296Z,49.80
2023-05-01T10:22:49.771Z,52.80
2023-05-01T10:25:18.286Z,52.30
2023-05-01T10:27:45.549Z,53.50
2023-05-01T10:30:12.938Z,55.80
2023-05-01T10:32:41.838Z,53.90
2023-05-01T10:35:20.188Z,54.70
2023-05-01T10:37:49.118Z,53.40
2023-05-01T10:40:41.295Z,55.70
2023-05-01T10:43:21.291Z,54.80
2023-05-01T10:45:49.247Z,54.10
2023-05-01T10:48:38.112Z,54.60
2023-05-01T10:51:15.584Z,54.60
2023-05-01T10:53:43.374Z,53.70
2023-05-01T10:56:25.771Z,53.90
2023-05-01T10:59:04.847Z,55.30
2023-05-01T11:01:43.293Z,53.30
2023-05-01T11:04:22.506Z,53.50
2023-05-01T11:07:11.573Z,54.60
2023-05-01T11:09:54.864Z,54.20
2023-05-01T11:12:46.537Z,55.70
2023-05-01T11:15:29.725Z,54.40
2023-05-01T11:18:03.747Z,55.30
2023-05-01T11:20:51.165Z,55.40
2023-05-01T11:23:18.585Z,57.50
2023-05-01T11:25:48.214Z,56.50
2023-05-01T11:28:20.819Z,57.00
2023-05-01T11:30:48.503Z,55.30
2023-05-01T11:33:22.712Z,56.60
2023-05-01T11:35:58.672Z,59.40
2023-05-01T11:38:25.732Z,60.70
2023-05-01T11:40:59.162Z,60.20
2023-05-01T11:43:26.902Z,59.90
2023-05-01T11:46:02.671Z,61.30
2023-05-01T11:48:31.617Z,61.20
2023-05-01T11:50:58.801Z,60.00
2023-05-01T11:53:25.854Z,60.00
2023-05-01T11:55:52.967Z,59.70
2023-05-01T11:58:34.667Z,63.70
2023-05-01T12:01:01.972Z,61.20
2023-05-01T12:03:44.210Z,60.60
2023-05-01T12:06:15.671Z,61.00
2023-05-01T12:08:51.216Z,60.20
2023-05-01T12:11:20.726Z,61.10
2023-05-01T12:13:50.261Z,62.90
2023-05-01T12:16:17.511Z,63.40
2023-05-01T12:18:44.734Z,64.20
2023-05-01T12:21:18.108Z,64.10
2023-05-01T12:23:45.085Z,64.70
2023-05-01T12:26:25.334Z,64.80
2023-05-01T12:28:58.662Z,63.30
2023-05-01T12:31:27.174Z,63.70
2023-05-01T12:34:03.521Z,63.40
2023-05-01T12:36:35.462Z,63.40
2023-05-01T12:39:03.741Z,64.00
2023-05-01T12:41:37.560Z,64.80
2023-05-01T12:44:21.002Z,65.60
2023-05-01T12:47:02.083Z,67.50
2023-05-01T12:49:30.488Z,68.60
2023-05-01T12:52:03.742Z,69.60
2023-05-01T12:54:40.714Z,71.20
2023-05-01T12:57:15.557Z,71.20
2023-05-01T12:59:47.193Z,71.20
2023-05-01T13:02:25.863Z,70.10
2023-05-01T13:05:14.000Z,70.50
2023-05-01T13:07:52.244Z,71.10
2023-05-01T13:10:34.127Z,69.40
2023-05-01T13:13:04.179Z,72.40
2023-05-01T13:15:31.951Z,71.30
2023-05-01T13:18:05.599Z,70.00
2023-05-01T13:20:32.999Z,69.00
2023-05-01T13:23:00.035Z,67.40
2023-05-01T13:25:27.399Z,68.20
2023-05-01T13:27:54.362Z,70.30
2023-05-01T13:30:31.439Z,72.20
2023-05-01T13:32:58.612Z,69.50
2023-05-01T13:35:27.250Z,69.80
2023-05-01T13:37:54.860Z,68.80
2023-05-01T13:40:24.058Z,68.40
2023-05-01T13:42:53.055Z,68.90
2023-05-01T13:45:21.467Z,67.30
2023-05-01T13:47:50.125Z,67.00
2023-05-01T13:50:18.150Z,67.40
2023-05-01T13:52:45.899Z,66.90
2023-05-01T13:55:17.774Z,65.80
2023-05-01T13:57:44.834Z,63.80
2023-05-01T14:00:19.310Z,64.40
2023-05-01T14:02:53.299Z,64.80
2023-05-01T14:05:28.548Z,64.40
2023-05-01T14:07:57.716Z,64.40
2023-05-01T14:10:27.931Z,68.40
2023-05-01T14:12:59.053Z,66.60
2023-05-01T14:15:26.337Z,67.60
2023-05-01T14:17:53.430Z,66.90
2023-05-01T14:20:20.498Z,64.20
2023-05-01T14:22:51.758Z,65.70
2023-05-01T14:25:27.258Z,65.20
2023-05-01T14:27:55.370Z,65.70
2023-05-01T14:30:33.864Z,66.80
2023-05-01T14:33:08.218Z,67.80
2023-05-01T14:35:36.469Z,68.50
2023-05-01T14:38:14.016Z,69.10
2023-05-01T14:40:44.563Z,69.00
2023-05-01T14:43:17.977Z,70.40
2023-05-01T14:45:46.682Z,71.10
2023-05-01T14:48:35.973Z,69.20
2023-05-01T14:51:06.598Z,69.40
2023-05-01T14:53:33.652Z,70.40
2023-05-01T14:56:00.758Z,67.30
2023-05-01T14:58:27.687Z,66.30
2023-05-01T15:00:55.241Z,68.20
2023-05-01T15:03:22.378Z,69.00
2023-05-01T15:05:49.499Z,67.60
2023-05-01T15:08:16.814Z,67.80
2023-05-01T15:10:45.072Z,66.80
2023-05-01T15:13:12.074Z,67.60
2023-05-01T15:15:39.043Z,68.50
2023-05-01T15:18:06.099Z,67.60
2023-05-01T15:20:33.545Z,68.40
2023-05-01T15:23:00.439Z,69.00
2023-05-01T15:25:27.543Z,69.50
2023-05-01T15:27:55.501Z,70.40
2023-05-01T15:30:22.673Z,71.50
2023-05-01T15:32:49.732Z,71.30
2023-05-01T15:35:17.513Z,72.40
2023-05-01T15:37:44.460Z,72.80
2023-05-01T15:40:11.847Z,74.30
2023-05-01T15:42:39.892Z,74.20
2023-05-01T15:45:07.543Z,75.60
2023-05-01T15:47:34.455Z,75.10
2023-05-01T15:50:01.621Z,76.90
2023-05-01T15:52:32.114Z,76.70
2023-05-01T15:54:59.168Z,77.40
2023-05-01T15:57:26.087Z,77.40
2023-05-01T15:59:55.980Z,79.40
2023-05-01T16:02:23.305Z,78.30
2023-05-01T16:04:56.313Z,80.00
2023-05-01T16:07:23.300Z,79.30
2023-05-01T16:09:50.359Z,81.40
2023-05-01T16:12:17.293Z,83.30
2023-05-01T16:14:44.517Z,82.40
2023-05-01T16:17:11.747Z,80.60
2023-05-01T16:19:39.482Z,81.10
2023-05-01T16:22:07.320Z,83.20
2023-05-01T16:24:35.202Z,82.70
2023-05-01T16:27:02.598Z,82.00
2023-05-01T16:29:32.154Z,84.80
2023-05-01T16:31:59.181Z,82.50
2023-05-01T16:34:27.121Z,82.90
2023-05-01T16:36:56.320Z,83.80
2023-05-01T16:39:23.532Z,86.00
2023-05-01T16:41:54.905Z,87.80
2023-05-01T16:44:23.228Z,88.40
2023-05-01T16:46:54.994Z,88.90
2023-05-01T16:49:23.629Z,90.40
2023-05-01T16:51:50.927Z,91.50
2023-05-01T16:54:18.239Z,89.40
2023-05-01T16:56:45.430Z,88.90
2023-05-01T16:59:12.473Z,88.40
2023-05-01T17:01:39.423Z,88.90
2023-05-01T17:04:06.573Z,89.80
2023-05-01T17:06:33.573Z,90.40
2023-05-01T17:09:00.591Z,90.70
2023-05-01T17:11:28.618Z,90.90
2023-05-01T17:13:57.313Z,91.20
2023-05-01T17:16:24.346Z,91.10
2023-05-01T17:18:51.360Z,91.00
2023-05-01T17:21:18.769Z,90.80
2023-05-01T17:23:45.759Z,90.80
2023-05-01T17:26:16.068Z,90.80
2023-05-01T17:28:45.042Z,90.80
2023-05-01T17:31:12.151Z,90.80
2023-05-01T17:33:39.185Z,90.10
2023-05-01T17:36:06.310Z,90.60
2023-05-01T17:38:33.278Z,90.70
2023-05-01T17:41:00.271Z,90.90
2023-05-01T17:43:27.290Z,90.90
2023-05-01T17:45:54.438Z,90.80
2023-05-01T17:48:29.285Z,92.20
2023-05-01T17:50:56.325Z,90.80
2023-05-01T17:53:23.411Z,91.00
2023-05-01T17:55:50.694Z,91.20
2023-05-01T17:58:17.652Z,92.20
2023-05-01T18:00:44.897Z,92.70
2023-05-01T18:03:12.597Z,92.00
2023-05-01T18:05:39.798Z,93.10
2023-05-01T18:08:06.919Z,92.70
2023-05-01T18:10:34.034Z,93.20
2023-05-01T18:13:01.001Z,93.20
2023-05-01T18:15:28.117Z,94.10
2023-05-01T18:17:55.174Z,94.00
2023-05-01T18:20:22.454Z,94.90
2023-05-01T18:22:50.122Z,94.20
2023-05-01T18:25:17.484Z,94.70
2023-05-01T18:27:46.245Z,94.40
2023-05-01T18:30:13.423Z,95.10
2023-05-01T18:32:48.391Z,95.80
2023-05-01T18:35:17.245Z,96.40
2023-05-01T18:37:44.345Z,97.00
2023-05-01T18:40:11.818Z,98.00
2023-05-01T18:42:41.698Z,98.50
2023-05-01T18:45:10.293Z,98.30
2023-05-01T18:47:37.330Z,99.00
2023-05-01T18:50:05.645Z,98.80
2023-05-01T18:52:32.920Z,97.70
2023-05-01T18:54:59.939Z,97.90
2023-05-01T18:57:28.719Z,98.30
2023-05-01T18:59:55.788Z,98.40
2023-05-01T19:02:23.130Z,98.10
2023-05-01T19:04:57.427Z,97.90
2023-05-01T19:07:26.533Z,96.70
2023-05-01T19:09:53.676Z,96.80
2023-05-01T19:12:20.643Z,96.60
2023-05-01T19:14:47.648Z,96.90
2023-05-01T19:17:14.701Z,97.40
2023-05-01T19:19:41.630Z,98.00
2023-05-01T19:22:08.608Z,98.40
2023-05-01T19:24:35.559Z,98.60
2023-05-01T19:27:03.451Z,99.20
2023-05-01T19:29:33.821Z,99.90
2023-05-01T19:32:00.893Z,99.90
2023-05-01T19:34:28.500Z,99.90
2023-05-01T19:36:57.138Z,99.90
2023-05-01T19:39:24.247Z,99.90
2023-05-01T19:41:51.642Z,99.90
2023-05-01T19:44:18.676Z,99.90
2023-05-01T19:46:45.635Z,99.90
2023-05-01T19:49:12.594Z,99.90
2023-05-01T19:51:39.572Z,99.90
2023-05-01T19:54:06.636Z,99.90
2023-05-01T19:56:34.184Z,99.90
2023-05-01T19:59:01.162Z,99.90
2023-05-01T20:01:31.447Z,99.90
2023-05-01T20:03:58.464Z,99.90
2023-05-01T20:06:25.550Z,99.90
2023-05-01T20:08:52.545Z,99.90
2023-05-01T20:11:19.481Z,99.90
2023-05-01T20:13:46.393Z,99.90
2023-05-01T20:16:13.327Z,99.90
2023-05-01T20:18:40.340Z,99.90
2023-05-01T20:21:07.926Z,99.90
2023-05-01T20:23:34.976Z,99.90
2023-05-01T20:26:01.999Z,99.90
2023-05-01T20:28:29.388Z,99.90
2023-05-01T20:30:56.848Z,99.90
2023-05-01T20:33:24.687Z,99.90
2023-05-01T20:35:51.836Z,99.90
2023-05-01T20:38:18.832Z,99.90
2023-05-01T20:40:45.928Z,99.90
2023-05-01T20:43:13.070Z,99.90
2023-05-01T20:45:40.201Z,99.90
2023-05-01T20:48:07.653Z,99.90
2023-05-01T20:50:35.535Z,99.90
2023-05-01T20:53:05.043Z,99.90
2023-05-01T20:55:31.942Z,99.90
2023-05-01T20:57:58.894Z,99.90
2023-05-01T21:00:25.940Z,99.90
2023-05-01T21:02:53.201Z,99.90
2023-05-01T21:05:20.465Z,99.90
2023-05-01T21:07:48.108Z,99.90
2023-05-01T21:10:16.689Z,99.90
2023-05-01T21:12:43.745Z,99.90
2023-05-01T21:15:11.978Z,99.90
2023-05-01T21:17:40.776Z,99.90
2023-05-01T21:20:12.400Z,99.90
2023-05-01T21:22:42.001Z,99.90
2023-05-01T21:25:09.359Z,99.90
2023-05-01T21:27:40.903Z,99.90
2023-05-01T21:30:08.778Z,99.90
2023-05-01T21:32:41.722Z,99.90
2023-05-01T21:35:10.159Z,99.90
2023-05-01T21:37:37.763Z,99.90
2023-05-01T21:40:06.682Z,99.90
2023-05-01T21:42:39.929Z,99.90
2023-05-01T21:45:13.020Z,99.90
2023-05-01T21:47:45.764Z,99.90
2023-05-01T21:50:18.030Z,99.90
2023-05-01T21:52:48.108Z,99.90
2023-05-01T21:55:25.083Z,99.90
2023-05-01T21:57:56.265Z,99.90
2023-05-01T22:00:23.451Z,99.90
2023-05-01T22:02:52.061Z,99.90
2023-05-01T22:05:22.589Z,99.90
2023-05-01T22:07:52.128Z,99.90
2023-05-01T22:10:19.755Z,99.90
2023-05-01T22:12:48.893Z,99.90
2023-05-01T22:15:16.422Z,99.90
2023-05-01T22:17:43.943Z,99.90
2023-05-01T22:20:11.627Z,99.90
2023-05-01T22:22:40.462Z,99.90
2023-05-01T22:25:08.633Z,99.90
2023-05-01T22:27:36.394Z,99.90
2023-05-01T22:30:04.584Z,99.90
2023-05-01T22:32:31.722Z,99.90
2023-05-01T22:34:58.798Z,99.90
2023-05-01T22:37:25.975Z,99.90
2023-05-01T22:39:57.691Z,99.90
2023-05-01T22:42:24.979Z,99.90
2023-05-01T22:44:52.011Z,99.90
2023-05-01T22:47:18.919Z,99.90
2023-05-01T22:49:45.876Z,99.90
2023-05-01T22:52:12.835Z,99.90
2023-05-01T22:54:39.807Z,99.90
2023-05-01T22:57:06.731Z,99.90
2023-05-01T22:59:33.725Z,99.90
2023-05-01T23:02:04.003Z,99.90
2023-05-01T23:04:32.326Z,99.90
2023-05-01T23:06:59.364Z,99.90
2023-05-01T23:09:26.569Z,99.90
2023-05-01T23:11:53.626Z,99.90
2023-05-01T23:14:20.707Z,99.90
2023-05-01T23:16:47.661Z,99.90
2023-05-01T23:19:22.904Z,99.90
2023-05-01T23:21:51.276Z,99.90
2023-05-01T23:24:21.387Z,99.90
2023-05-01T23:26:48.743Z,99.90
2023-05-01T23:29:17.190Z,99.90
2023-05-01T23:31:47.925Z,99.90
2023-05-01T23:34:17.214Z,99.90
2023-05-01T23:36:47.794Z,99.90
2023-05-01T23:39:16.414Z,99.90
2023-05-01T23:41:43.974Z,99.90
2023-05-01T23:44:11.368Z,99.90
2023-05-01T23:46:38.485Z,99.90
2023-05-01T23:49:05.605Z,99.90
2023-05-01T23:51:32.956Z,99.90
2023-05-01T23:54:00.194Z,99.90
2023-05-01T23:56:27.190Z,99.90
2023-05-01T23:58:54.154Z,99.90
